createdAt,value
2019-03-27T06:11:57.495Z,87.54
2019-03-27T06:12:57.470Z,87.35
2019-03-27T06:14:50.932Z,87.73
2019-03-27T06:15:50.892Z,87.82
2019-03-27T06:17:44.315Z,88.29
2019-03-27T06:18:44.293Z,88.01
2019-03-27T06:20:37.731Z,87.06
2019-03-27T06:21:37.703Z,87.45
2019-03-27T06:23:31.096Z,87.54
2019-03-27T06:24:31.093Z,87.35
2019-03-27T06:26:24.523Z,87.54
2019-03-27T06:27:24.496Z,87.68
2019-03-27T06:29:17.886Z,88.01
2019-03-27T06:30:17.883Z,87.45
2019-03-27T06:32:11.306Z,87.45
2019-03-27T06:33:11.288Z,87.92
2019-03-27T06:35:04.685Z,87.54
2019-03-27T06:36:04.694Z,87.73
2019-03-27T06:37:58.131Z,86.59
2019-03-27T06:38:58.089Z,86.30
2019-03-27T06:40:52.327Z,86.78
2019-03-27T06:41:52.334Z,86.30
2019-03-27T06:43:45.739Z,86.87
2019-03-27T06:44:45.721Z,86.78
2019-03-27T06:46:39.131Z,86.30
2019-03-27T06:47:39.139Z,85.83
2019-03-27T06:49:32.558Z,85.74
2019-03-27T06:50:32.576Z,85.07
2019-03-27T06:52:25.942Z,85.45
2019-03-27T06:53:25.942Z,85.17
2019-03-27T06:55:20.170Z,85.55
2019-03-27T06:56:20.179Z,85.26
2019-03-27T06:58:13.602Z,84.88
2019-03-27T06:59:13.627Z,85.45
2019-03-27T07:01:06.989Z,85.45
2019-03-27T07:02:07.141Z,84.41
2019-03-27T07:04:10.277Z,84.12
2019-03-27T07:05:00.419Z,85.02
2019-03-27T07:06:53.822Z,85.87
2019-03-27T07:07:53.811Z,85.21
2019-03-27T07:09:47.233Z,84.64
2019-03-27T07:10:47.278Z,85.11
2019-03-27T07:12:40.651Z,84.92
2019-03-27T07:13:40.614Z,84.45
2019-03-27T07:15:35.719Z,84.07
2019-03-27T07:16:34.019Z,84.11
2019-03-27T07:18:39.421Z,83.54
2019-03-27T07:19:27.427Z,83.54
2019-03-27T07:21:20.838Z,83.64
2019-03-27T07:22:20.831Z,82.69
2019-03-27T07:24:14.237Z,82.69
2019-03-27T07:25:14.221Z,82.78
2019-03-27T07:27:07.617Z,82.78
2019-03-27T07:28:07.633Z,82.88
2019-03-27T07:30:01.043Z,82.88
2019-03-27T07:31:01.026Z,82.69
2019-03-27T07:32:54.454Z,81.84
2019-03-27T07:33:54.436Z,81.84
2019-03-27T07:35:47.849Z,82.40
2019-03-27T07:36:47.839Z,82.12
2019-03-27T07:38:41.260Z,82.97
2019-03-27T07:39:41.242Z,82.40
2019-03-27T07:41:34.627Z,82.31
2019-03-27T07:42:34.637Z,82.40
2019-03-27T07:44:28.908Z,80.88
2019-03-27T07:45:28.897Z,81.07
2019-03-27T07:47:22.320Z,81.93
2019-03-27T07:48:22.295Z,80.22
2019-03-27T07:50:15.749Z,79.79
2019-03-27T07:51:15.728Z,79.60
2019-03-27T07:53:09.143Z,78.36
2019-03-27T07:54:09.141Z,78.59
2019-03-27T07:56:03.389Z,77.26
2019-03-27T07:57:03.393Z,76.69
2019-03-27T07:58:59.699Z,76.50
2019-03-27T07:59:56.777Z,77.07
2019-03-27T08:01:50.189Z,76.50
2019-03-27T08:02:50.176Z,76.40
2019-03-27T08:04:43.600Z,76.31
2019-03-27T08:05:43.597Z,76.31
2019-03-27T08:07:36.977Z,76.21
2019-03-27T08:08:36.998Z,76.97
2019-03-27T08:10:30.417Z,75.84
2019-03-27T08:11:30.547Z,75.84
2019-03-27T08:13:23.796Z,75.93
2019-03-27T08:14:23.803Z,75.55
2019-03-27T08:16:17.225Z,76.08
2019-03-27T08:17:17.223Z,76.27
2019-03-27T08:19:10.621Z,76.93
2019-03-27T08:20:10.630Z,77.12
2019-03-27T08:22:04.043Z,76.56
2019-03-27T08:23:04.068Z,76.93
2019-03-27T08:24:57.455Z,75.99
2019-03-27T08:25:57.445Z,76.56
2019-03-27T08:27:51.717Z,76.27
2019-03-27T08:28:51.696Z,75.79
2019-03-27T08:30:45.130Z,76.21
2019-03-27T08:31:45.118Z,75.51
2019-03-27T08:33:38.513Z,75.60
2019-03-27T08:34:38.524Z,76.03
2019-03-27T08:36:31.960Z,75.17
2019-03-27T08:37:31.935Z,75.17
2019-03-27T08:39:25.359Z,73.97
2019-03-27T08:40:25.348Z,73.49
2019-03-27T08:42:19.624Z,71.97
2019-03-27T08:43:21.492Z,71.50
2019-03-27T08:45:13.005Z,71.31
2019-03-27T08:46:13.026Z,70.45
2019-03-27T08:48:06.449Z,70.20
2019-03-27T08:49:06.429Z,70.54
2019-03-27T08:50:59.861Z,70.97
2019-03-27T08:51:59.844Z,70.93
2019-03-27T08:53:54.099Z,70.17
2019-03-27T08:54:54.124Z,69.69
2019-03-27T08:56:47.522Z,70.10
2019-03-27T08:57:47.505Z,70.20
2019-03-27T08:59:41.786Z,70.49
2019-03-27T09:00:41.799Z,70.58
2019-03-27T09:02:36.067Z,69.63
2019-03-27T09:03:36.068Z,69.35
2019-03-27T09:05:29.462Z,68.36
2019-03-27T09:06:33.960Z,69.69
2019-03-27T09:08:22.978Z,70.36
2019-03-27T09:09:22.872Z,70.64
2019-03-27T09:11:16.348Z,69.79
2019-03-27T09:12:16.299Z,69.54
2019-03-27T09:14:09.713Z,69.73
2019-03-27T09:15:09.706Z,69.63
2019-03-27T09:17:03.166Z,69.69
2019-03-27T09:18:03.129Z,69.88
2019-03-27T09:19:56.527Z,71.12
2019-03-27T09:20:56.526Z,71.22
2019-03-27T09:22:49.960Z,70.45
2019-03-27T09:23:49.939Z,70.45
2019-03-27T09:25:44.183Z,70.07
2019-03-27T09:26:44.190Z,70.26
2019-03-27T09:28:37.666Z,70.79
2019-03-27T09:29:37.613Z,71.46
2019-03-27T09:31:44.095Z,72.13
2019-03-27T09:32:31.031Z,72.22
2019-03-27T09:34:24.452Z,72.70
2019-03-27T09:35:24.439Z,73.74
2019-03-27T09:37:17.831Z,74.03
2019-03-27T09:38:17.830Z,73.18
2019-03-27T09:40:11.252Z,72.03
2019-03-27T09:41:11.251Z,72.60
2019-03-27T09:43:05.662Z,71.18
2019-03-27T09:44:05.588Z,71.46
2019-03-27T09:45:58.891Z,71.37
2019-03-27T09:46:58.903Z,71.66
2019-03-27T09:48:52.352Z,72.13
2019-03-27T09:49:52.373Z,72.60
2019-03-27T09:51:45.726Z,73.18
2019-03-27T09:52:45.728Z,72.89
2019-03-27T09:54:39.170Z,72.22
2019-03-27T09:55:39.133Z,72.19
2019-03-27T09:57:32.531Z,73.55
2019-03-27T09:58:32.543Z,73.36
2019-03-27T10:00:25.976Z,74.22
2019-03-27T10:01:25.948Z,73.46
2019-03-27T10:03:19.355Z,73.84
2019-03-27T10:04:19.389Z,73.84
2019-03-27T10:06:12.781Z,74.69
2019-03-27T10:07:12.761Z,74.31
2019-03-27T10:09:06.183Z,74.41
2019-03-27T10:10:06.239Z,75.07
2019-03-27T10:11:59.674Z,75.13
2019-03-27T10:12:59.586Z,75.60
2019-03-27T10:14:53.005Z,75.79
2019-03-27T10:15:52.992Z,75.70
2019-03-27T10:17:46.384Z,75.60
2019-03-27T10:18:47.596Z,76.18
2019-03-27T10:20:39.811Z,76.08
2019-03-27T10:21:39.804Z,76.27
2019-03-27T10:23:33.209Z,75.79
2019-03-27T10:24:33.225Z,75.70
2019-03-27T10:26:26.668Z,75.79
2019-03-27T10:27:26.621Z,76.08
2019-03-27T10:29:20.042Z,73.33
2019-03-27T10:30:20.042Z,73.08
2019-03-27T10:32:13.430Z,73.08
2019-03-27T10:33:15.232Z,73.08
2019-03-27T10:35:06.841Z,73.55
2019-03-27T10:36:06.835Z,74.16
2019-03-27T10:38:00.229Z,71.31
2019-03-27T10:39:00.237Z,71.59
2019-03-27T10:40:53.670Z,69.15
2019-03-27T10:41:53.668Z,71.15
2019-03-27T10:43:47.047Z,69.44
2019-03-27T10:44:47.066Z,69.00
2019-03-27T10:46:40.505Z,67.47
2019-03-27T10:47:40.476Z,67.10
2019-03-27T10:49:34.583Z,65.77
2019-03-27T10:50:33.916Z,67.29
2019-03-27T10:52:27.300Z,64.90
2019-03-27T10:53:27.301Z,65.10
2019-03-27T10:55:20.888Z,66.05
2019-03-27T10:56:20.717Z,65.29
2019-03-27T10:58:14.142Z,65.29
2019-03-27T10:59:14.118Z,63.67
2019-03-27T11:01:07.639Z,65.29
2019-03-27T11:02:07.559Z,65.29
2019-03-27T11:04:00.963Z,65.38
2019-03-27T11:05:00.970Z,64.53
2019-03-27T11:06:54.387Z,66.53
2019-03-27T11:07:54.377Z,65.48
2019-03-27T11:09:47.778Z,65.83
2019-03-27T11:10:47.789Z,66.68
2019-03-27T11:12:41.209Z,67.41
2019-03-27T11:13:41.210Z,64.28
2019-03-27T11:15:35.478Z,57.06
2019-03-27T11:16:35.480Z,56.38
2019-03-27T11:18:28.877Z,56.87
2019-03-27T11:19:28.905Z,58.36
2019-03-27T11:21:22.323Z,57.67
2019-03-27T11:22:22.321Z,58.21
2019-03-27T11:24:15.731Z,61.04
2019-03-27T11:25:15.738Z,60.37
2019-03-27T11:27:09.158Z,61.61
2019-03-27T11:28:09.152Z,61.90
2019-03-27T11:30:02.569Z,62.05
2019-03-27T11:31:02.577Z,62.91
2019-03-27T11:32:56.007Z,64.34
2019-03-27T11:33:55.993Z,63.39
2019-03-27T11:36:03.547Z,63.29
2019-03-27T11:55:14.423Z,61.42
2019-03-27T11:56:14.408Z,61.58
2019-03-27T11:58:07.846Z,64.37
2019-03-27T11:59:07.828Z,63.10
2019-03-27T12:01:01.233Z,62.62
2019-03-27T12:02:01.260Z,64.62
2019-03-27T12:03:54.669Z,63.99
2019-03-27T12:04:54.671Z,62.94
2019-03-27T12:06:48.053Z,61.22
2019-03-27T12:07:48.096Z,60.85
2019-03-27T12:09:41.479Z,61.22
2019-03-27T12:10:41.483Z,60.75
2019-03-27T12:12:34.913Z,58.56
2019-03-27T12:13:34.890Z,58.47
2019-03-27T12:15:28.298Z,57.54
2019-03-27T12:16:28.307Z,57.19
2019-03-27T12:18:21.732Z,55.12
2019-03-27T12:19:21.732Z,54.26
2019-03-27T12:21:15.118Z,53.72
2019-03-27T12:22:15.136Z,51.93
2019-03-27T12:24:08.554Z,50.78
2019-03-27T12:25:08.552Z,50.21
2019-03-27T12:27:01.961Z,50.88
2019-03-27T12:28:01.984Z,52.03
2019-03-27T12:29:55.462Z,50.47
2019-03-27T12:30:55.398Z,50.57
2019-03-27T12:32:48.830Z,51.90
2019-03-27T12:33:48.816Z,52.00
2019-03-27T12:35:43.061Z,52.45
2019-03-27T12:36:43.072Z,51.68
2019-03-27T12:38:36.494Z,52.26
2019-03-27T12:39:36.499Z,52.73
2019-03-27T12:41:32.861Z,53.85
2019-03-27T12:42:29.944Z,54.04
2019-03-27T12:44:23.352Z,53.09
2019-03-27T12:45:23.349Z,53.41
2019-03-27T12:47:16.767Z,53.12
2019-03-27T12:48:16.786Z,52.64
2019-03-27T12:50:10.235Z,52.67
2019-03-27T12:51:12.967Z,51.43
2019-03-27T12:53:03.669Z,46.75
2019-03-27T12:54:03.630Z,45.70
2019-03-27T12:55:57.058Z,46.13
2019-03-27T12:56:57.041Z,45.94
2019-03-27T12:58:50.466Z,47.13
2019-03-27T12:59:50.477Z,47.47
2019-03-27T13:01:43.889Z,46.17
2019-03-27T13:02:43.931Z,46.17
2019-03-27T13:04:37.334Z,44.02
2019-03-27T13:05:37.328Z,42.90
2019-03-27T13:07:30.763Z,39.62
2019-03-27T13:08:30.764Z,39.72
2019-03-27T13:10:23.754Z,36.78
2019-03-27T13:11:23.707Z,35.18
2019-03-27T13:13:17.149Z,35.76
2019-03-27T13:14:17.225Z,34.99
2019-03-27T13:16:10.610Z,36.15
2019-03-27T13:17:10.610Z,38.26
2019-03-27T13:19:04.861Z,36.66
2019-03-27T13:20:04.970Z,35.26
2019-03-27T13:21:59.199Z,35.48
2019-03-27T13:22:59.153Z,38.79
2019-03-27T13:24:53.522Z,44.72
2019-03-27T13:25:53.468Z,46.22
2019-03-27T13:27:47.597Z,49.21
2019-03-27T13:28:48.988Z,50.35
2019-03-27T13:30:41.182Z,52.45
2019-03-27T13:31:41.174Z,52.83
2019-03-27T13:33:34.611Z,53.28
2019-03-27T13:34:34.611Z,53.66
2019-03-27T13:36:28.096Z,54.88
2019-03-27T13:37:28.083Z,55.35
2019-03-27T13:39:21.490Z,55.73
2019-03-27T13:40:21.512Z,55.26
2019-03-27T13:42:14.959Z,56.94
2019-03-27T13:43:15.013Z,57.80
2019-03-27T13:45:08.369Z,57.89
2019-03-27T13:46:08.367Z,58.28
2019-03-27T13:48:01.821Z,57.99
2019-03-27T13:49:01.790Z,57.80
2019-03-27T13:50:55.242Z,58.37
2019-03-27T13:51:55.222Z,59.23
2019-03-27T13:53:48.628Z,58.62
2019-03-27T13:54:48.638Z,58.81
2019-03-27T13:56:42.074Z,60.24
2019-03-27T13:57:42.057Z,60.44
2019-03-27T13:59:35.468Z,60.91
2019-03-27T14:00:35.480Z,61.10
2019-03-27T14:02:28.904Z,61.58
2019-03-27T14:03:28.886Z,60.82
2019-03-27T14:05:22.280Z,61.48
2019-03-27T14:06:22.299Z,61.26
2019-03-27T14:08:15.723Z,62.02
2019-03-27T14:09:15.714Z,62.15
2019-03-27T14:11:09.130Z,62.24
2019-03-27T14:12:09.119Z,61.67
2019-03-27T14:14:11.302Z,61.19
2019-03-27T14:15:03.381Z,61.10
2019-03-27T14:16:56.809Z,61.86
2019-03-27T14:17:56.804Z,62.02
2019-03-27T14:19:50.193Z,62.88
2019-03-27T14:20:50.206Z,63.64
2019-03-27T14:22:43.631Z,63.48
2019-03-27T14:23:43.619Z,62.91
2019-03-27T14:25:37.028Z,62.91
2019-03-27T14:26:44.942Z,63.29
2019-03-27T14:28:30.455Z,63.01
2019-03-27T14:29:30.461Z,62.91
2019-03-27T14:31:23.851Z,63.26
2019-03-27T14:32:23.859Z,63.48
2019-03-27T14:34:17.307Z,63.29
2019-03-27T14:35:17.280Z,62.91
2019-03-27T14:37:10.726Z,63.01
2019-03-27T14:38:10.689Z,62.62
2019-03-27T14:40:04.095Z,62.43
2019-03-27T14:41:04.102Z,62.72
2019-03-27T14:42:57.532Z,62.24
2019-03-27T14:43:57.536Z,63.20
2019-03-27T14:45:50.936Z,63.57
2019-03-27T14:46:50.961Z,63.96
2019-03-27T14:48:44.367Z,64.40
2019-03-27T14:49:44.361Z,64.11
2019-03-27T14:51:37.768Z,64.40
2019-03-27T14:52:37.770Z,64.40
2019-03-27T14:54:31.194Z,65.25
2019-03-27T14:55:31.188Z,64.31
2019-03-27T14:57:24.601Z,64.59
2019-03-27T14:58:24.607Z,65.06
2019-03-27T15:00:18.031Z,64.59
2019-03-27T15:01:18.017Z,65.06
2019-03-27T15:03:11.409Z,65.64
2019-03-27T15:04:11.414Z,65.73
2019-03-27T15:06:04.961Z,64.78
2019-03-27T15:07:04.839Z,64.97
2019-03-27T15:08:58.288Z,65.16
2019-03-27T15:09:58.249Z,65.25
2019-03-27T15:11:51.646Z,65.45
2019-03-27T15:12:51.676Z,64.87
2019-03-27T15:14:45.075Z,64.87
2019-03-27T15:15:45.071Z,64.21
2019-03-27T15:17:38.494Z,63.54
2019-03-27T15:18:38.490Z,63.35
2019-03-27T15:20:31.925Z,64.31
2019-03-27T15:21:31.925Z,63.92
2019-03-27T15:23:25.315Z,64.31
2019-03-27T15:24:25.326Z,63.92
2019-03-27T15:26:18.745Z,63.45
2019-03-27T15:27:18.737Z,63.26
2019-03-27T15:29:12.176Z,63.07
2019-03-27T15:30:13.005Z,63.07
2019-03-27T15:32:05.561Z,63.35
2019-03-27T15:33:05.568Z,62.88
2019-03-27T15:34:59.028Z,62.69
2019-03-27T15:35:58.985Z,62.78
2019-03-27T15:37:52.387Z,63.54
2019-03-27T15:38:52.451Z,63.54
2019-03-27T15:40:45.920Z,62.97
2019-03-27T15:41:46.729Z,62.88
2019-03-27T15:43:39.325Z,63.54
2019-03-27T15:44:39.344Z,63.26
2019-03-27T15:46:32.785Z,63.73
2019-03-27T15:47:32.777Z,63.39
2019-03-27T15:49:26.162Z,62.91
2019-03-27T15:50:26.176Z,63.01
2019-03-27T15:52:19.764Z,62.91
2019-03-27T15:53:19.580Z,62.91
2019-03-27T15:55:13.009Z,62.24
2019-03-27T15:56:13.004Z,62.05
2019-03-27T15:58:06.450Z,63.01
2019-03-27T15:59:06.430Z,63.29
2019-03-27T16:00:59.844Z,61.83
2019-03-27T16:01:59.835Z,63.29
2019-03-27T16:03:53.246Z,63.35
2019-03-27T16:04:53.264Z,63.92
2019-03-27T16:06:46.714Z,64.69
2019-03-27T16:07:46.669Z,64.59
2019-03-27T16:09:40.060Z,65.45
2019-03-27T16:10:40.089Z,64.69
2019-03-27T16:12:36.127Z,64.50
2019-03-27T16:13:33.501Z,63.64
2019-03-27T16:15:26.913Z,64.31
2019-03-27T16:16:27.254Z,64.87
2019-03-27T16:18:20.339Z,65.83
2019-03-27T16:19:20.331Z,65.58
2019-03-27T16:21:13.812Z,65.16
2019-03-27T16:22:13.764Z,65.95
2019-03-27T16:24:07.155Z,65.67
2019-03-27T16:25:07.188Z,64.34
2019-03-27T16:27:04.546Z,65.10
2019-03-27T16:28:00.589Z,65.29
2019-03-27T16:29:54.011Z,64.90
2019-03-27T16:30:55.564Z,64.81
2019-03-27T16:32:47.517Z,64.31
2019-03-27T16:33:47.441Z,64.21
2019-03-27T16:35:40.849Z,65.64
2019-03-27T16:36:40.873Z,65.54
2019-03-27T16:38:34.298Z,66.11
2019-03-27T16:39:34.266Z,65.64
2019-03-27T16:41:27.677Z,66.72
2019-03-27T16:42:27.684Z,65.35
2019-03-27T16:44:21.107Z,64.50
2019-03-27T16:45:21.157Z,64.40
2019-03-27T16:47:14.559Z,66.08
2019-03-27T16:48:14.523Z,65.60
2019-03-27T16:50:07.937Z,66.08
2019-03-27T16:51:07.954Z,65.80
2019-03-27T16:53:03.886Z,67.50
2019-03-27T16:54:01.335Z,66.59
2019-03-27T16:55:54.752Z,66.08
2019-03-27T16:56:54.743Z,65.60
2019-03-27T16:58:48.192Z,66.17
2019-03-27T16:59:48.161Z,66.84
2019-03-27T17:01:41.670Z,65.99
2019-03-27T17:02:41.576Z,66.46
2019-03-27T17:04:34.522Z,67.92
2019-03-27T17:05:34.522Z,67.07
2019-03-27T17:07:27.952Z,65.83
2019-03-27T17:08:27.952Z,66.20
2019-03-27T17:10:21.367Z,66.59
2019-03-27T17:11:21.346Z,67.25
2019-03-27T17:13:15.606Z,67.82
2019-03-27T17:14:15.591Z,66.78
2019-03-27T17:16:08.988Z,65.92
2019-03-27T17:17:08.991Z,64.87
2019-03-27T17:19:02.534Z,66.27
2019-03-27T17:20:02.408Z,66.55
2019-03-27T17:21:55.819Z,67.98
2019-03-27T17:22:55.822Z,67.79
2019-03-27T17:24:49.344Z,67.07
2019-03-27T17:25:49.291Z,67.54
2019-03-27T17:27:42.669Z,65.92
2019-03-27T17:28:42.665Z,65.99
2019-03-27T17:30:36.152Z,67.13
2019-03-27T17:31:36.077Z,66.46
2019-03-27T17:33:29.502Z,67.88
2019-03-27T17:34:29.492Z,69.25
2019-03-27T17:36:22.976Z,68.96
2019-03-27T17:37:22.929Z,69.44
2019-03-27T17:39:41.880Z,67.16
2019-03-27T17:40:38.826Z,66.30
2019-03-27T17:42:32.304Z,67.44
2019-03-27T17:43:32.236Z,67.29
2019-03-27T17:45:25.702Z,67.19
2019-03-27T17:46:25.667Z,65.77
2019-03-27T17:48:19.068Z,64.78
2019-03-27T17:49:19.083Z,65.83
2019-03-27T17:51:12.559Z,68.77
2019-03-27T17:52:12.529Z,68.68
2019-03-27T17:54:06.781Z,65.73
2019-03-27T17:55:05.479Z,66.68
2019-03-27T17:56:58.867Z,66.81
2019-03-27T17:57:58.855Z,66.81
2019-03-27T17:59:52.273Z,67.19
2019-03-27T18:00:52.266Z,67.10
2019-03-27T18:02:45.646Z,66.14
2019-03-27T18:03:45.677Z,67.00
2019-03-27T18:05:39.161Z,67.29
2019-03-27T18:06:39.073Z,66.33
2019-03-27T18:08:32.517Z,66.68
2019-03-27T18:09:32.484Z,67.07
2019-03-27T18:11:25.926Z,68.77
2019-03-27T18:12:25.921Z,68.01
2019-03-27T18:14:19.301Z,67.25
2019-03-27T18:15:19.298Z,67.73
2019-03-27T18:17:12.714Z,67.54
2019-03-27T18:18:12.706Z,67.10
2019-03-27T18:20:06.142Z,66.97
2019-03-27T18:21:06.132Z,69.19
2019-03-27T18:22:59.544Z,68.71
2019-03-27T18:23:59.543Z,69.67
2019-03-27T18:25:52.954Z,67.29
2019-03-27T18:28:06.383Z,69.19
2019-03-27T18:29:06.358Z,69.67
2019-03-27T18:30:59.773Z,67.57
2019-03-27T18:31:59.770Z,67.57
2019-03-27T18:33:53.172Z,67.19
2019-03-27T18:34:53.198Z,66.20
2019-03-27T18:36:47.467Z,67.29
2019-03-27T18:37:47.466Z,68.62
2019-03-27T18:39:40.843Z,67.10
2019-03-27T18:40:40.870Z,68.15
2019-03-27T18:42:35.143Z,67.57
2019-03-27T18:43:35.182Z,67.10
2019-03-27T18:45:29.359Z,66.02
2019-03-27T18:46:29.374Z,67.25
2019-03-27T18:48:22.801Z,67.10
2019-03-27T18:49:22.769Z,68.24
2019-03-27T18:51:16.173Z,67.38
2019-03-27T18:52:16.179Z,66.62
2019-03-27T18:54:09.597Z,67.57
2019-03-27T18:55:09.589Z,68.33
2019-03-27T18:57:03.014Z,68.05
2019-03-27T18:58:03.020Z,68.81
2019-03-27T18:59:56.427Z,68.24
2019-03-27T19:00:56.412Z,69.38
2019-03-27T19:02:49.848Z,67.19
2019-03-27T19:03:49.805Z,66.43
2019-03-27T19:05:44.046Z,69.29
2019-03-27T19:06:44.059Z,67.47
2019-03-27T19:08:38.562Z,68.05
2019-03-27T19:09:38.535Z,66.81
2019-03-27T19:11:31.967Z,68.40
2019-03-27T19:12:31.940Z,68.21
2019-03-27T19:14:25.375Z,67.63
2019-03-27T19:15:25.341Z,68.30
2019-03-27T19:17:18.733Z,70.39
2019-03-27T19:18:18.780Z,71.25
2019-03-27T19:20:12.199Z,70.30
2019-03-27T19:21:12.232Z,70.20
2019-03-27T19:23:05.640Z,70.24
2019-03-27T19:24:14.694Z,69.95
2019-03-27T19:25:59.029Z,69.44
2019-03-27T19:26:59.037Z,70.58
2019-03-27T19:28:53.876Z,73.00
2019-03-27T19:29:52.448Z,73.66
2019-03-27T19:31:45.835Z,70.33
2019-03-27T19:32:45.844Z,69.19
2019-03-27T19:34:39.260Z,70.14
2019-03-27T19:35:39.285Z,70.90
2019-03-27T19:37:32.650Z,69.57
2019-03-27T19:38:32.659Z,69.29
2019-03-27T19:40:26.067Z,69.29
2019-03-27T19:41:26.092Z,69.00
2019-03-27T19:43:19.470Z,70.14
2019-03-27T19:44:19.484Z,70.75
2019-03-27T19:46:12.938Z,70.75
2019-03-27T19:47:12.901Z,68.75
2019-03-27T19:49:06.313Z,70.14
2019-03-27T19:50:06.307Z,69.57
2019-03-27T19:51:59.738Z,69.85
2019-03-27T19:52:59.722Z,69.95
2019-03-27T19:54:53.285Z,70.33
2019-03-27T19:55:53.127Z,70.33
2019-03-27T19:57:47.385Z,69.85
2019-03-27T19:58:47.414Z,69.57
2019-03-27T20:00:40.849Z,71.06
2019-03-27T20:01:40.828Z,72.14
2019-03-27T20:03:34.770Z,71.00
2019-03-27T20:04:34.195Z,70.58
2019-03-27T20:06:27.624Z,71.06
2019-03-27T20:07:35.880Z,70.97
2019-03-27T20:09:20.993Z,70.68
2019-03-27T20:10:21.033Z,71.53
2019-03-27T20:12:14.448Z,72.58
2019-03-27T20:13:14.421Z,74.01
2019-03-27T20:15:12.363Z,70.97
2019-03-27T20:16:07.838Z,71.15
2019-03-27T20:18:01.263Z,72.16
2019-03-27T20:19:01.771Z,72.07
2019-03-27T20:20:54.634Z,73.97
2019-03-27T20:21:54.623Z,73.21
2019-03-27T20:23:48.029Z,74.63
2019-03-27T20:24:48.039Z,74.44
2019-03-27T20:26:41.475Z,73.97
2019-03-27T20:27:41.590Z,74.26
2019-03-27T20:29:35.698Z,75.07
2019-03-27T20:30:35.721Z,75.45
2019-03-27T20:32:29.175Z,75.45
2019-03-27T20:33:29.096Z,75.84
2019-03-27T20:35:23.019Z,75.64
2019-03-27T20:36:22.515Z,76.88
2019-03-27T20:38:15.929Z,78.59
2019-03-27T20:39:15.905Z,78.78
2019-03-27T20:41:09.347Z,78.97
2019-03-27T20:42:09.436Z,77.55
2019-03-27T20:44:02.714Z,76.88
2019-03-27T20:45:02.733Z,77.83
2019-03-27T20:46:56.158Z,76.97
2019-03-27T20:47:56.144Z,78.97
2019-03-27T20:49:49.531Z,78.64
2019-03-27T20:50:49.535Z,79.03
2019-03-27T20:52:43.002Z,79.41
2019-03-27T20:53:42.992Z,79.69
2019-03-27T20:55:36.410Z,79.60
2019-03-27T20:56:36.390Z,79.31
2019-03-27T20:58:29.814Z,76.75
2019-03-27T20:59:29.810Z,76.99
2019-03-27T21:01:23.239Z,79.22
2019-03-27T21:02:23.211Z,78.45
2019-03-27T21:04:16.604Z,79.17
2019-03-27T21:05:16.621Z,79.17
2019-03-27T21:07:10.045Z,83.78
2019-03-27T21:08:10.032Z,82.71
2019-03-27T21:10:03.416Z,78.53
2019-03-27T21:11:03.536Z,76.63
2019-03-27T21:12:56.859Z,73.74
2019-03-27T21:13:56.846Z,74.98
2019-03-27T21:31:37.200Z,78.45
2019-03-27T21:32:37.181Z,78.97
2019-03-27T21:34:30.588Z,78.59
2019-03-27T21:35:30.579Z,78.59
2019-03-27T21:37:24.005Z,77.83
2019-03-27T21:38:23.979Z,77.73
2019-03-27T21:40:17.368Z,78.02
2019-03-27T21:41:17.364Z,77.83
2019-03-27T21:43:10.800Z,77.64
2019-03-27T21:44:10.777Z,77.17
2019-03-27T21:46:04.198Z,76.93
2019-03-27T21:47:04.190Z,77.89
2019-03-27T21:48:57.690Z,77.98
2019-03-27T21:49:57.583Z,77.51
2019-03-27T21:51:50.978Z,76.93
2019-03-27T21:53:00.492Z,77.70
2019-03-27T21:54:44.407Z,78.74
2019-03-27T21:55:44.418Z,78.70
2019-03-27T21:57:37.824Z,78.89
2019-03-27T21:58:37.798Z,79.65
2019-03-27T22:00:31.225Z,78.99
2019-03-27T22:01:31.222Z,78.89
2019-03-27T22:03:24.634Z,79.65
2019-03-27T22:04:24.612Z,78.70
2019-03-27T22:06:18.028Z,78.80
2019-03-27T22:07:19.413Z,78.42
2019-03-27T22:09:11.452Z,78.89
2019-03-27T22:10:11.443Z,80.79
2019-03-27T22:12:04.888Z,80.88
2019-03-27T22:13:04.869Z,80.22
2019-03-27T22:14:58.275Z,79.46
2019-03-27T22:15:58.267Z,79.61
2019-03-27T22:17:51.679Z,79.71
2019-03-27T22:18:51.689Z,79.23
2019-03-27T22:20:45.092Z,79.71
2019-03-27T22:21:45.084Z,79.80
2019-03-27T22:23:38.495Z,80.18
2019-03-27T22:24:38.522Z,80.41
2019-03-27T22:26:31.928Z,79.65
2019-03-27T22:27:31.897Z,78.70
2019-03-27T22:29:25.297Z,78.70
2019-03-27T22:30:25.306Z,79.17
2019-03-27T22:32:18.706Z,78.28
2019-03-27T22:33:18.711Z,78.56
2019-03-27T22:35:12.142Z,79.14
2019-03-27T22:36:12.118Z,78.66
2019-03-27T22:38:05.526Z,79.14
2019-03-27T22:39:05.557Z,79.71
2019-03-27T22:40:59.090Z,80.24
2019-03-27T22:41:58.937Z,80.52
2019-03-27T22:43:52.335Z,80.62
2019-03-27T22:44:52.337Z,80.90
2019-03-27T22:46:45.772Z,81.18
2019-03-27T22:47:45.748Z,80.90
2019-03-27T22:49:39.181Z,81.94
2019-03-27T22:50:39.153Z,82.32
2019-03-27T22:52:32.578Z,82.32
2019-03-27T22:53:32.585Z,82.32
2019-03-27T22:55:25.986Z,82.60
2019-03-27T22:56:25.974Z,82.32
2019-03-27T22:58:19.381Z,82.32
2019-03-27T22:59:19.374Z,84.03
2019-03-27T23:01:12.801Z,86.63
2019-03-27T23:02:12.809Z,84.26
2019-03-27T23:04:06.291Z,78.66
2019-03-27T23:05:06.179Z,78.19
2019-03-27T23:06:59.627Z,78.91
2019-03-27T23:07:59.601Z,79.76
2019-03-27T23:09:53.071Z,80.80
2019-03-27T23:10:52.994Z,80.62
2019-03-27T23:12:46.410Z,80.80
2019-03-27T23:13:46.403Z,81.47
2019-03-27T23:15:39.798Z,81.37
2019-03-27T23:16:39.803Z,81.18
2019-03-27T23:18:33.216Z,81.71
2019-03-27T23:19:33.197Z,81.75
2019-03-27T23:21:34.257Z,82.47
2019-03-27T23:22:26.610Z,81.99
2019-03-27T23:29:23.957Z,82.09
2019-03-27T23:30:23.936Z,81.99
2019-03-27T23:32:17.342Z,82.37
2019-03-27T23:33:20.159Z,82.47
2019-03-27T23:35:11.884Z,82.75
2019-03-27T23:36:10.740Z,83.04
